createdAt,value
2023-01-11T00:01:04.191Z,98.13
2023-01-11T00:03:31.736Z,96.89
2023-01-11T00:06:00.191Z,98.19
2023-01-11T00:08:27.856Z,98.18
2023-01-11T00:10:55.275Z,99.36
2023-01-11T00:13:22.679Z,97.86
2023-01-11T00:15:49.455Z,96.07
2023-01-11T00:18:16.278Z,97.66
2023-01-11T00:20:42.954Z,98.01
2023-01-11T00:23:11.449Z,98.30
2023-01-11T00:25:38.729Z,99.45
2023-01-11T00:28:05.939Z,98.91
2023-01-11T00:30:33.178Z,99.33
2023-01-11T00:33:00.530Z,97.06
2023-01-11T00:35:27.947Z,96.13
2023-01-11T00:37:54.660Z,94.97
2023-01-11T00:40:22.751Z,94.26
2023-01-11T00:42:49.395Z,94.03
2023-01-11T00:45:16.243Z,93.84
2023-01-11T00:47:43.021Z,92.67
2023-01-11T00:50:10.850Z,93.36
2023-01-11T00:52:37.652Z,94.34
2023-01-11T00:55:05.296Z,94.13
2023-01-11T00:57:33.361Z,92.48
2023-01-11T01:00:00.165Z,91.34
2023-01-11T01:02:26.949Z,92.37
2023-01-11T01:04:53.604Z,91.10
2023-01-11T01:07:20.289Z,92.09
2023-01-11T01:09:46.980Z,91.41
2023-01-11T01:12:13.713Z,91.96
2023-01-11T01:14:42.060Z,92.78
2023-01-11T01:17:09.122Z,90.85
2023-01-11T01:19:38.145Z,91.27
2023-01-11T01:22:04.837Z,90.17
2023-01-11T01:24:31.556Z,90.44
2023-01-11T01:26:58.701Z,88.82
2023-01-11T01:29:26.116Z,88.39
2023-01-11T01:31:54.456Z,89.82
2023-01-11T01:34:21.147Z,88.44
2023-01-11T01:36:47.819Z,88.66
2023-01-11T01:39:14.539Z,88.33
2023-01-11T01:41:41.444Z,88.27
2023-01-11T01:44:41.324Z,88.15
2023-01-11T01:47:09.903Z,86.53
2023-01-11T01:49:37.193Z,87.70
2023-01-11T01:52:04.142Z,87.50
2023-01-11T01:54:36.585Z,87.43
2023-01-11T01:57:09.348Z,87.30
2023-01-11T01:59:36.295Z,87.22
2023-01-11T02:02:03.199Z,86.15
2023-01-11T02:04:34.531Z,85.75
2023-01-11T02:07:04.492Z,84.91
2023-01-11T02:09:38.839Z,84.43
2023-01-11T02:12:07.620Z,84.10
2023-01-11T02:14:36.796Z,83.56
2023-01-11T02:17:03.803Z,84.09
2023-01-11T02:19:44.712Z,84.81
2023-01-11T02:22:43.932Z,85.42
2023-01-11T02:25:52.781Z,85.50
2023-01-11T02:28:27.677Z,85.59
2023-01-11T02:31:03.217Z,85.15
2023-01-11T02:33:40.004Z,86.80
2023-01-11T02:36:17.184Z,86.29
2023-01-11T02:38:51.528Z,86.11
2023-01-11T02:41:25.907Z,85.53
2023-01-11T02:44:00.796Z,86.70
2023-01-11T02:46:32.600Z,87.06
2023-01-11T02:49:08.518Z,86.85
2023-01-11T02:51:41.873Z,87.22
2023-01-11T02:54:11.077Z,86.31
2023-01-11T02:56:41.071Z,86.37
2023-01-11T02:59:12.551Z,86.03
2023-01-11T03:01:45.953Z,85.81
2023-01-11T03:04:26.891Z,86.35
2023-01-11T03:07:06.958Z,86.79
2023-01-11T03:09:43.060Z,86.44
2023-01-11T03:12:28.174Z,85.58
2023-01-11T03:15:11.952Z,85.04
2023-01-11T03:17:53.325Z,85.01
2023-01-11T03:20:24.443Z,84.80
2023-01-11T03:23:06.875Z,83.87
2023-01-11T03:25:46.955Z,82.72
2023-01-11T03:28:22.125Z,83.72
2023-01-11T03:30:59.692Z,84.65
2023-01-11T03:33:36.194Z,83.95
2023-01-11T03:36:13.506Z,84.34
2023-01-11T03:38:46.063Z,83.98
2023-01-11T03:41:18.974Z,84.60
2023-01-11T03:43:49.740Z,84.64
2023-01-11T03:46:22.292Z,85.03
2023-01-11T03:48:53.899Z,85.46
2023-01-11T03:51:24.776Z,85.98
2023-01-11T03:53:52.828Z,85.38
2023-01-11T03:56:24.531Z,85.50
2023-01-11T03:58:51.254Z,85.36
2023-01-11T04:01:19.638Z,85.31
2023-01-11T04:03:46.420Z,84.84
2023-01-11T04:06:13.336Z,86.96
2023-01-11T04:08:40.014Z,86.70
2023-01-11T04:11:06.697Z,86.55
2023-01-11T04:13:33.390Z,87.76
2023-01-11T04:16:00.168Z,87.23
2023-01-11T04:18:28.347Z,88.02
2023-01-11T04:20:55.121Z,89.10
2023-01-11T04:23:21.877Z,87.19
2023-01-11T04:25:48.684Z,87.41
2023-01-11T04:28:15.406Z,88.55
2023-01-11T04:30:42.127Z,88.39
2023-01-11T04:33:08.788Z,86.95
2023-01-11T04:35:36.926Z,88.28
2023-01-11T04:38:03.606Z,87.29
2023-01-11T04:40:30.299Z,89.25
2023-01-11T04:42:57.028Z,88.30
2023-01-11T04:45:23.753Z,88.07
2023-01-11T04:47:54.091Z,87.49
2023-01-11T04:50:21.015Z,87.42
2023-01-11T04:52:49.135Z,89.12
2023-01-11T04:55:15.994Z,88.23
2023-01-11T04:57:43.659Z,86.89
2023-01-11T05:00:11.954Z,86.49
2023-01-11T05:02:38.768Z,85.70
2023-01-11T05:05:06.885Z,86.04
2023-01-11T05:07:33.975Z,85.34
2023-01-11T05:10:02.093Z,84.66
2023-01-11T05:12:28.863Z,83.92
2023-01-11T05:14:55.577Z,84.24
2023-01-11T05:17:22.265Z,83.86
2023-01-11T05:19:49.032Z,84.17
2023-01-11T05:22:15.736Z,83.50
2023-01-11T05:24:42.666Z,85.10
2023-01-11T05:27:10.777Z,83.85
2023-01-11T05:29:37.441Z,82.58
2023-01-11T05:32:04.457Z,83.13
2023-01-11T05:34:31.124Z,81.59
2023-01-11T05:36:57.972Z,80.83
2023-01-11T05:39:24.760Z,79.68
2023-01-11T05:41:51.429Z,79.09
2023-01-11T05:44:19.542Z,79.77
2023-01-11T05:46:46.499Z,79.57
2023-01-11T05:49:14.285Z,80.30
2023-01-11T05:51:41.938Z,80.12
2023-01-11T05:54:11.384Z,78.46
2023-01-11T05:56:38.458Z,77.16
2023-01-11T05:59:05.143Z,77.92
2023-01-11T06:01:33.412Z,77.08
2023-01-11T06:04:00.206Z,76.56
2023-01-11T06:06:27.256Z,74.48
2023-01-11T06:08:54.306Z,74.89
2023-01-11T06:11:21.009Z,73.12
2023-01-11T06:13:47.694Z,74.69
2023-01-11T06:16:16.535Z,76.46
2023-01-11T06:18:46.822Z,76.11
2023-01-11T06:21:15.019Z,76.38
2023-01-11T06:23:43.440Z,77.58
2023-01-11T06:26:12.378Z,76.66
2023-01-11T06:28:39.721Z,75.62
2023-01-11T06:31:07.227Z,73.96
2023-01-11T06:33:35.246Z,73.80
2023-01-11T06:36:05.755Z,72.88
2023-01-11T06:38:32.788Z,73.24
2023-01-11T06:41:00.983Z,75.27
2023-01-11T06:43:29.004Z,76.52
2023-01-11T06:45:56.104Z,75.16
2023-01-11T06:48:23.477Z,75.19
2023-01-11T06:50:51.722Z,73.40
2023-01-11T06:53:20.665Z,73.16
2023-01-11T06:55:50.148Z,73.45
2023-01-11T06:58:16.852Z,72.45
2023-01-11T07:00:43.562Z,73.43
2023-01-11T07:03:11.459Z,74.71
2023-01-11T07:05:38.488Z,74.58
2023-01-11T07:08:05.674Z,72.86
2023-01-11T07:10:33.873Z,71.76
2023-01-11T07:13:00.627Z,72.65
2023-01-11T07:15:28.503Z,72.48
2023-01-11T07:17:56.043Z,72.55
2023-01-11T07:20:23.580Z,72.58
2023-01-11T07:22:50.254Z,73.64
2023-01-11T07:25:17.349Z,74.13
2023-01-11T07:27:45.492Z,74.47
2023-01-11T07:30:12.978Z,73.43
2023-01-11T07:32:39.777Z,73.47
2023-01-11T07:35:07.495Z,74.74
2023-01-11T07:37:37.553Z,76.25
2023-01-11T07:40:05.537Z,74.57
2023-01-11T07:42:32.216Z,74.71
2023-01-11T07:45:00.279Z,75.09
2023-01-11T07:47:27.099Z,76.10
2023-01-11T07:49:53.795Z,75.71
2023-01-11T07:52:20.507Z,76.33
2023-01-11T07:54:47.189Z,75.86
2023-01-11T07:57:13.840Z,75.37
2023-01-11T07:59:40.510Z,76.11
2023-01-11T08:02:10.625Z,76.85
2023-01-11T08:04:37.326Z,78.33
2023-01-11T08:07:04.030Z,78.38
2023-01-11T08:09:30.877Z,78.73
2023-01-11T08:11:57.564Z,78.53
2023-01-11T08:14:24.227Z,78.31
2023-01-11T08:16:51.004Z,79.20
2023-01-11T08:19:19.236Z,80.10
2023-01-11T08:21:45.872Z,80.35
2023-01-11T08:24:12.548Z,81.35
2023-01-11T08:26:39.225Z,81.62
2023-01-11T08:29:05.965Z,81.53
2023-01-11T08:31:32.730Z,81.62
2023-01-11T08:33:59.551Z,81.98
2023-01-11T08:36:27.614Z,81.98
2023-01-11T08:38:55.310Z,82.36
2023-01-11T08:41:22.028Z,82.10
2023-01-11T08:43:48.722Z,83.53
2023-01-11T08:46:16.937Z,82.82
2023-01-11T08:48:44.144Z,82.51
2023-01-11T08:51:10.835Z,81.65
2023-01-11T08:53:38.906Z,81.16
2023-01-11T08:56:06.199Z,80.92
2023-01-11T08:58:32.900Z,81.24
2023-01-11T09:01:00.396Z,80.76
2023-01-11T09:03:27.137Z,80.22
2023-01-11T09:05:53.864Z,79.81
2023-01-11T09:08:20.885Z,79.64
2023-01-11T09:10:49.038Z,78.41
2023-01-11T09:13:15.730Z,77.90
2023-01-11T09:15:42.691Z,77.25
2023-01-11T09:18:09.414Z,76.84
2023-01-11T09:20:36.089Z,75.48
2023-01-11T09:23:02.791Z,74.62
2023-01-11T09:25:29.446Z,74.60
2023-01-11T09:27:57.493Z,75.14
2023-01-11T09:30:24.702Z,75.20
2023-01-11T09:32:52.468Z,75.88
2023-01-11T09:35:19.161Z,76.11
2023-01-11T09:37:48.697Z,75.66
2023-01-11T09:40:19.088Z,76.66
2023-01-11T09:42:49.143Z,76.88
2023-01-11T09:45:19.096Z,76.35
2023-01-11T09:47:50.753Z,76.45
2023-01-11T09:50:21.274Z,76.07
2023-01-11T09:52:51.305Z,74.98
2023-01-11T09:55:22.421Z,74.95
2023-01-11T09:58:06.639Z,73.62
2023-01-11T10:00:49.204Z,73.84
2023-01-11T10:03:39.575Z,74.00
2023-01-11T10:06:15.273Z,76.99
2023-01-11T10:18:35.337Z,87.89
2023-01-11T10:18:48.901Z,90.51
2023-01-11T10:21:11.882Z,91.72
2023-01-11T10:23:47.460Z,93.57
2023-01-11T10:26:24.029Z,95.37
2023-01-11T10:28:58.727Z,94.01
2023-01-11T10:31:25.536Z,93.64
2023-01-11T10:33:58.533Z,92.76
2023-01-11T10:36:30.867Z,94.06
2023-01-11T10:39:03.485Z,96.46
2023-01-11T10:41:39.132Z,96.59
2023-01-11T10:44:14.927Z,96.66
2023-01-11T10:46:45.113Z,95.46
2023-01-11T10:49:33.754Z,95.17
2023-01-11T10:52:15.893Z,96.00
2023-01-11T10:54:46.133Z,95.64
2023-01-11T10:57:20.896Z,96.82
2023-01-11T11:00:12.410Z,96.35
2023-01-11T11:03:29.128Z,94.93
2023-01-11T11:06:04.844Z,94.15
2023-01-11T11:08:39.703Z,93.07
2023-01-11T11:11:13.065Z,92.64
2023-01-11T11:13:48.009Z,92.51
2023-01-11T11:16:28.764Z,93.65
2023-01-11T11:18:58.548Z,94.00
2023-01-11T11:21:30.334Z,93.81
2023-01-11T11:24:02.155Z,93.63
2023-01-11T11:26:35.680Z,92.68
2023-01-11T11:29:05.238Z,92.03
2023-01-11T11:31:34.888Z,90.18
2023-01-11T11:34:05.652Z,90.14
2023-01-11T11:36:42.566Z,90.48
2023-01-11T11:39:11.904Z,90.79
2023-01-11T11:41:47.435Z,92.21
2023-01-11T11:44:20.018Z,91.48
2023-01-11T11:47:00.753Z,91.93
2023-01-11T11:49:28.817Z,89.78
2023-01-11T11:51:59.672Z,90.00
2023-01-11T11:54:29.549Z,89.13
2023-01-11T11:56:58.834Z,89.75
2023-01-11T11:59:29.744Z,89.57
2023-01-11T12:02:00.529Z,89.42
2023-01-11T12:04:39.981Z,89.66
2023-01-11T12:07:13.892Z,88.67
2023-01-11T12:09:46.233Z,87.29
2023-01-11T12:12:21.183Z,85.99
2023-01-11T12:15:18.458Z,86.12
2023-01-11T12:17:45.524Z,84.62
2023-01-11T12:20:31.177Z,84.72
2023-01-11T12:23:20.320Z,84.65
2023-01-11T12:26:18.008Z,83.56
2023-01-11T12:29:05.864Z,83.96
2023-01-11T12:31:47.266Z,82.70
2023-01-11T12:34:31.246Z,82.87
2023-01-11T12:37:04.912Z,82.86
2023-01-11T12:39:43.079Z,83.74
2023-01-11T12:42:34.262Z,83.38
2023-01-11T12:45:15.722Z,83.78
2023-01-11T12:48:12.477Z,83.93
2023-01-11T12:50:54.784Z,83.68
2023-01-11T12:53:34.472Z,84.51
2023-01-11T12:56:22.166Z,83.07
2023-01-11T12:58:56.297Z,84.64
2023-01-11T13:01:48.259Z,88.66
2023-01-11T13:04:44.025Z,89.67
2023-01-11T13:07:22.744Z,88.99
2023-01-11T13:10:08.843Z,91.25
2023-01-11T13:12:42.790Z,91.11
2023-01-11T13:15:25.837Z,90.67
2023-01-11T13:17:59.628Z,91.20
2023-01-11T13:20:53.467Z,90.82
2023-01-11T13:23:33.114Z,89.61
2023-01-11T13:26:05.538Z,88.13
2023-01-11T13:28:38.008Z,87.09
2023-01-11T13:31:09.692Z,89.28
2023-01-11T13:33:41.604Z,87.04
2023-01-11T13:36:22.907Z,87.84
2023-01-11T13:38:57.905Z,87.72
2023-01-11T13:41:30.484Z,89.71
2023-01-11T13:44:05.111Z,92.36
2023-01-11T13:46:51.757Z,91.40
2023-01-11T13:49:36.873Z,90.40
2023-01-11T13:52:11.664Z,90.75
2023-01-11T13:54:45.773Z,88.69
2023-01-11T13:57:21.914Z,88.15
2023-01-11T13:59:55.099Z,88.18
2023-01-11T14:02:27.648Z,87.26
2023-01-11T14:04:59.970Z,86.63
2023-01-11T14:07:40.966Z,84.01
2023-01-11T14:10:35.412Z,83.29
2023-01-11T14:13:20.386Z,83.04
2023-01-11T14:15:58.354Z,83.49
2023-01-11T14:18:34.474Z,84.08
2023-01-11T14:21:09.071Z,83.58
2023-01-11T14:23:45.982Z,83.57
2023-01-11T14:26:52.153Z,83.21
2023-01-11T14:29:46.407Z,83.14
2023-01-11T14:32:42.937Z,84.44
2023-01-11T14:35:42.105Z,85.81
2023-01-11T14:38:46.032Z,81.88
2023-01-11T14:41:36.290Z,82.30
2023-01-11T14:44:19.809Z,82.09
2023-01-11T14:47:13.355Z,82.84
2023-01-11T14:49:57.041Z,85.12
2023-01-11T14:52:39.751Z,86.68
2023-01-11T14:55:16.750Z,88.53
2023-01-11T14:57:59.138Z,88.91
2023-01-11T15:01:04.715Z,87.19
2023-01-11T15:03:54.745Z,86.69
2023-01-11T15:06:23.521Z,89.52
2023-01-11T15:08:53.485Z,91.99
2023-01-11T15:11:24.803Z,92.38
2023-01-11T15:13:56.321Z,90.52
2023-01-11T15:16:26.491Z,91.24
2023-01-11T15:18:53.822Z,90.12
2023-01-11T15:21:25.771Z,90.45
2023-01-11T15:23:55.353Z,92.82
2023-01-11T15:26:24.092Z,92.70
2023-01-11T15:28:53.223Z,94.01
2023-01-11T15:31:34.361Z,93.45
2023-01-11T15:34:04.980Z,94.75
2023-01-11T15:37:06.580Z,95.52
2023-01-11T15:39:40.261Z,100.00
2023-01-11T15:42:44.019Z,100.00
2023-01-11T15:45:41.901Z,100.00
2023-01-11T15:48:24.824Z,100.00
2023-01-11T15:51:10.647Z,100.00
2023-01-11T15:54:18.557Z,100.00
2023-01-11T15:57:08.742Z,100.00
2023-01-11T15:59:58.294Z,100.00
2023-01-11T16:02:59.476Z,100.00
2023-01-11T16:05:29.402Z,100.00
2023-01-11T16:08:05.667Z,100.00
2023-01-11T16:11:00.591Z,100.00
2023-01-11T16:13:39.564Z,100.00
2023-01-11T16:16:16.712Z,100.00
2023-01-11T16:18:46.057Z,98.51
2023-01-11T16:21:17.908Z,98.24
2023-01-11T16:23:45.199Z,96.80
2023-01-11T16:26:18.033Z,95.21
2023-01-11T16:28:50.852Z,95.18
2023-01-11T16:31:17.845Z,93.52
2023-01-11T16:33:44.722Z,93.13
2023-01-11T16:36:13.552Z,93.28
2023-01-11T16:38:47.294Z,91.27
2023-01-11T16:41:16.653Z,89.76
2023-01-11T16:43:50.139Z,88.48
2023-01-11T16:46:52.762Z,88.43
2023-01-11T16:49:19.645Z,90.56
2023-01-11T16:51:48.057Z,89.65
2023-01-11T16:54:22.863Z,88.61
2023-01-11T16:56:51.194Z,87.38
2023-01-11T16:59:22.645Z,86.84
2023-01-11T17:01:51.192Z,85.76
2023-01-11T17:04:29.781Z,85.54
2023-01-11T17:06:57.310Z,85.08
2023-01-11T17:09:24.315Z,84.46
2023-01-11T17:11:53.078Z,85.22
2023-01-11T17:14:46.100Z,85.17
2023-01-11T17:17:13.716Z,84.08
2023-01-11T17:19:45.869Z,83.59
2023-01-11T17:22:18.838Z,82.92
2023-01-11T17:24:51.392Z,82.66
2023-01-11T17:27:22.623Z,82.16
2023-01-11T17:29:51.595Z,82.14
2023-01-11T17:32:22.998Z,82.38
2023-01-11T17:34:51.010Z,83.12
2023-01-11T17:37:19.080Z,82.60
2023-01-11T17:39:49.325Z,82.83
2023-01-11T17:42:17.117Z,83.00
2023-01-11T17:44:46.628Z,83.29
2023-01-11T17:47:13.564Z,83.14
2023-01-11T17:49:40.326Z,82.63
2023-01-11T17:52:16.867Z,82.17
2023-01-11T17:54:43.563Z,81.86
2023-01-11T17:57:10.734Z,81.58
2023-01-11T17:59:37.715Z,80.90
2023-01-11T18:02:12.223Z,80.19
2023-01-11T18:04:39.455Z,79.39
2023-01-11T18:07:08.763Z,79.64
2023-01-11T18:09:43.574Z,79.79
2023-01-11T18:12:14.772Z,80.24
2023-01-11T18:14:48.586Z,79.47
2023-01-11T18:17:34.123Z,77.61
2023-01-11T18:20:02.445Z,76.46
2023-01-11T18:22:30.471Z,75.21
2023-01-11T18:24:58.120Z,73.35
2023-01-11T18:27:28.406Z,73.03
2023-01-11T18:29:56.929Z,72.27
2023-01-11T18:32:24.767Z,72.70
2023-01-11T18:34:54.393Z,73.01
2023-01-11T18:37:21.488Z,74.10
2023-01-11T18:39:50.538Z,73.12
2023-01-11T18:42:20.059Z,72.08
2023-01-11T18:44:47.792Z,72.03
2023-01-11T18:47:16.982Z,71.08
2023-01-11T18:49:43.809Z,71.52
2023-01-11T18:52:12.396Z,71.90
2023-01-11T18:54:39.359Z,72.93
2023-01-11T18:57:06.191Z,73.10
2023-01-11T18:59:33.309Z,73.65
2023-01-11T19:02:17.140Z,74.13
2023-01-11T19:04:44.848Z,75.01
2023-01-11T19:07:13.958Z,75.01
2023-01-11T19:09:40.814Z,75.07
2023-01-11T19:12:08.119Z,75.52
2023-01-11T19:14:34.806Z,75.57
2023-01-11T19:17:01.472Z,75.42
2023-01-11T19:19:28.152Z,75.88
2023-01-11T19:21:54.840Z,75.77
2023-01-11T19:24:23.006Z,77.17
2023-01-11T19:26:49.986Z,76.82
2023-01-11T19:29:17.038Z,77.54
2023-01-11T19:31:43.903Z,77.04
2023-01-11T19:34:10.620Z,77.16
2023-01-11T19:36:37.437Z,77.20
2023-01-11T19:39:04.539Z,76.96
2023-01-11T19:41:32.662Z,76.93
2023-01-11T19:43:59.437Z,78.76
2023-01-11T19:46:32.054Z,79.66
2023-01-11T19:48:59.105Z,82.05
2023-01-11T19:51:25.867Z,83.08
2023-01-11T19:53:52.574Z,83.56
2023-01-11T19:56:19.221Z,84.99
2023-01-11T19:58:47.372Z,85.23
2023-01-11T20:01:14.119Z,85.81
2023-01-11T20:03:40.823Z,86.53
2023-01-11T20:06:07.955Z,87.28
2023-01-11T20:08:35.490Z,88.85
2023-01-11T20:11:05.463Z,90.46
2023-01-11T20:13:32.268Z,92.53
2023-01-11T20:16:04.455Z,93.88
2023-01-11T20:18:31.153Z,95.18
2023-01-11T20:20:57.874Z,96.13
2023-01-11T20:23:24.964Z,96.03
2023-01-11T20:25:58.074Z,96.68
2023-01-11T20:28:24.792Z,96.59
2023-01-11T20:30:51.550Z,97.29
2023-01-11T20:33:19.796Z,98.29
2023-01-11T20:35:46.450Z,98.81
2023-01-11T20:38:13.223Z,99.83
2023-01-11T20:40:40.134Z,100.00
2023-01-11T20:43:07.220Z,100.00
2023-01-11T20:45:33.891Z,100.00
2023-01-11T20:48:00.818Z,100.00
2023-01-11T20:50:28.848Z,100.00
2023-01-11T20:52:55.492Z,100.00
2023-01-11T20:55:22.176Z,100.00
2023-01-11T20:57:48.888Z,100.00
2023-01-11T21:00:16.369Z,100.00
2023-01-11T21:02:43.144Z,100.00
2023-01-11T21:05:10.222Z,100.00
2023-01-11T21:07:38.272Z,100.00
2023-01-11T21:10:05.877Z,100.00
2023-01-11T21:12:32.614Z,100.00
2023-01-11T21:14:59.556Z,100.00
2023-01-11T21:17:26.308Z,100.00
2023-01-11T21:19:53.013Z,100.00
2023-01-11T21:22:19.702Z,100.00
2023-01-11T21:24:47.756Z,100.00
2023-01-11T21:27:14.482Z,100.00
2023-01-11T21:29:41.180Z,100.00
2023-01-11T21:32:07.972Z,100.00
2023-01-11T21:34:34.645Z,100.00
2023-01-11T21:37:01.320Z,100.00
2023-01-11T21:39:28.071Z,100.00
2023-01-11T21:41:56.241Z,100.00
2023-01-11T21:44:27.210Z,100.00
2023-01-11T21:46:54.542Z,100.00
2023-01-11T21:49:21.439Z,100.00
2023-01-11T21:51:48.239Z,100.00
2023-01-11T21:54:16.306Z,100.00
2023-01-11T21:56:42.929Z,100.00
2023-01-11T21:59:11.130Z,100.00
2023-01-11T22:01:39.185Z,100.00
2023-01-11T22:04:06.712Z,100.00
2023-01-11T22:06:35.474Z,100.00
2023-01-11T22:09:02.434Z,100.00
2023-01-11T22:11:29.122Z,100.00
2023-01-11T22:13:55.765Z,100.00
2023-01-11T22:16:23.957Z,100.00
2023-01-11T22:18:50.733Z,100.00
2023-01-11T22:21:19.048Z,100.00
2023-01-11T22:23:47.180Z,100.00
2023-01-11T22:26:15.576Z,100.00
2023-01-11T22:28:43.439Z,100.00
2023-01-11T22:31:10.189Z,100.00
2023-01-11T22:33:38.284Z,100.00
2023-01-11T22:36:05.472Z,100.00
2023-01-11T22:38:32.733Z,100.00
2023-01-11T22:40:59.736Z,100.00
2023-01-11T22:43:26.407Z,100.00
2023-01-11T22:45:57.439Z,100.00
2023-01-11T22:48:24.179Z,100.00
2023-01-11T22:50:52.667Z,100.00
2023-01-11T22:53:19.737Z,100.00
2023-01-11T22:55:46.823Z,100.00
2023-01-11T22:58:13.671Z,100.00
2023-01-11T23:00:40.446Z,100.00
2023-01-11T23:03:07.301Z,100.00
2023-01-11T23:05:34.089Z,100.00
2023-01-11T23:08:02.211Z,100.00
2023-01-11T23:10:28.855Z,100.00
2023-01-11T23:12:55.545Z,100.00
2023-01-11T23:15:22.346Z,100.00
2023-01-11T23:17:49.075Z,100.00
2023-01-11T23:20:16.325Z,100.00
2023-01-11T23:22:43.051Z,100.00
2023-01-11T23:25:11.492Z,100.00
2023-01-11T23:27:38.305Z,100.00
2023-01-11T23:30:06.275Z,100.00
2023-01-11T23:32:33.569Z,100.00
2023-01-11T23:35:00.463Z,100.00
2023-01-11T23:37:27.284Z,100.00
2023-01-11T23:39:54.058Z,100.00
2023-01-11T23:42:22.160Z,100.00
2023-01-11T23:44:48.840Z,100.00
2023-01-11T23:47:15.545Z,100.00
2023-01-11T23:49:42.246Z,100.00
2023-01-11T23:52:09.033Z,100.00
2023-01-11T23:54:35.728Z,100.00
2023-01-11T23:57:04.044Z,100.00
2023-01-11T23:59:32.530Z,100.00
